sensor_id;sensor_type;location;lat;lon;timestamp;P1;durP1;ratioP1;P2;durP2;ratioP2
56997;SDS011;42890;44.244;22.530;2023-07-30T00:01:58;8.52;;;7.63;;
56997;SDS011;42890;44.244;22.530;2023-07-30T00:04:24;8.00;;;7.30;;
56997;SDS011;42890;44.244;22.530;2023-07-30T00:06:50;11.20;;;7.55;;
56997;SDS011;42890;44.244;22.530;2023-07-30T00:09:16;8.57;;;7.82;;
56997;SDS011;42890;44.244;22.530;2023-07-30T00:11:43;8.15;;;7.20;;
56997;SDS011;42890;44.244;22.530;2023-07-30T00:14:09;9.20;;;7.93;;
56997;SDS011;42890;44.244;22.530;2023-07-30T00:16:35;7.07;;;6.47;;
56997;SDS011;42890;44.244;22.530;2023-07-30T00:19:01;9.90;;;7.50;;
56997;SDS011;42890;44.244;22.530;2023-07-30T00:21:27;7.25;;;6.75;;
56997;SDS011;42890;44.244;22.530;2023-07-30T00:23:53;8.18;;;7.43;;
56997;SDS011;42890;44.244;22.530;2023-07-30T00:26:19;8.18;;;7.35;;
56997;SDS011;42890;44.244;22.530;2023-07-30T00:28:45;7.55;;;6.90;;
56997;SDS011;42890;44.244;22.530;2023-07-30T00:31:11;7.32;;;6.68;;
56997;SDS011;42890;44.244;22.530;2023-07-30T00:33:38;7.57;;;6.88;;
56997;SDS011;42890;44.244;22.530;2023-07-30T00:36:04;8.07;;;7.38;;
56997;SDS011;42890;44.244;22.530;2023-07-30T00:38:30;8.15;;;7.45;;
56997;SDS011;42890;44.244;22.530;2023-07-30T00:40:56;8.13;;;7.32;;
56997;SDS011;42890;44.244;22.530;2023-07-30T00:43:22;7.95;;;7.15;;
56997;SDS011;42890;44.244;22.530;2023-07-30T00:45:48;8.45;;;7.45;;
56997;SDS011;42890;44.244;22.530;2023-07-30T00:48:15;8.82;;;7.15;;
56997;SDS011;42890;44.244;22.530;2023-07-30T00:50:41;8.02;;;7.38;;
56997;SDS011;42890;44.244;22.530;2023-07-30T00:53:08;8.32;;;7.40;;
56997;SDS011;42890;44.244;22.530;2023-07-30T00:55:35;8.30;;;7.43;;
56997;SDS011;42890;44.244;22.530;2023-07-30T00:58:01;9.77;;;7.50;;
56997;SDS011;42890;44.244;22.530;2023-07-30T01:00:27;8.23;;;7.57;;
56997;SDS011;42890;44.244;22.530;2023-07-30T01:02:55;11.70;;;8.00;;
56997;SDS011;42890;44.244;22.530;2023-07-30T01:05:21;7.93;;;7.22;;
56997;SDS011;42890;44.244;22.530;2023-07-30T01:07:47;11.02;;;7.03;;
56997;SDS011;42890;44.244;22.530;2023-07-30T01:10:13;7.20;;;6.60;;
56997;SDS011;42890;44.244;22.530;2023-07-30T01:12:40;8.60;;;7.10;;
56997;SDS011;42890;44.244;22.530;2023-07-30T01:15:08;7.72;;;7.05;;
56997;SDS011;42890;44.244;22.530;2023-07-30T01:17:35;7.88;;;7.13;;
56997;SDS011;42890;44.244;22.530;2023-07-30T01:20:01;8.23;;;7.50;;
56997;SDS011;42890;44.244;22.530;2023-07-30T01:22:28;8.90;;;8.07;;
56997;SDS011;42890;44.244;22.530;2023-07-30T01:24:54;8.75;;;7.95;;
56997;SDS011;42890;44.244;22.530;2023-07-30T01:27:25;8.57;;;7.82;;
56997;SDS011;42890;44.244;22.530;2023-07-30T01:29:52;8.23;;;7.53;;
56997;SDS011;42890;44.244;22.530;2023-07-30T01:32:24;8.00;;;7.20;;
56997;SDS011;42890;44.244;22.530;2023-07-30T01:34:53;8.40;;;7.55;;
56997;SDS011;42890;44.244;22.530;2023-07-30T01:37:19;9.13;;;7.15;;
56997;SDS011;42890;44.244;22.530;2023-07-30T01:39:46;8.82;;;7.55;;
56997;SDS011;42890;44.244;22.530;2023-07-30T01:42:13;7.85;;;7.05;;
56997;SDS011;42890;44.244;22.530;2023-07-30T01:44:40;8.02;;;7.35;;
56997;SDS011;42890;44.244;22.530;2023-07-30T01:47:06;7.90;;;7.20;;
56997;SDS011;42890;44.244;22.530;2023-07-30T01:49:32;10.25;;;7.15;;
56997;SDS011;42890;44.244;22.530;2023-07-30T01:51:58;9.05;;;7.95;;
56997;SDS011;42890;44.244;22.530;2023-07-30T01:54:24;9.73;;;7.40;;
56997;SDS011;42890;44.244;22.530;2023-07-30T01:56:51;8.25;;;7.40;;
56997;SDS011;42890;44.244;22.530;2023-07-30T01:59:17;9.32;;;8.30;;
56997;SDS011;42890;44.244;22.530;2023-07-30T02:01:43;9.00;;;8.15;;
56997;SDS011;42890;44.244;22.530;2023-07-30T02:04:09;8.48;;;7.78;;
56997;SDS011;42890;44.244;22.530;2023-07-30T02:06:35;8.45;;;7.65;;
56997;SDS011;42890;44.244;22.530;2023-07-30T02:09:02;12.85;;;8.40;;
56997;SDS011;42890;44.244;22.530;2023-07-30T02:11:28;9.27;;;8.10;;
56997;SDS011;42890;44.244;22.530;2023-07-30T02:13:54;9.10;;;8.30;;
56997;SDS011;42890;44.244;22.530;2023-07-30T02:16:20;9.55;;;8.75;;
56997;SDS011;42890;44.244;22.530;2023-07-30T02:18:47;9.07;;;8.27;;
56997;SDS011;42890;44.244;22.530;2023-07-30T02:21:13;9.10;;;8.25;;
56997;SDS011;42890;44.244;22.530;2023-07-30T02:23:39;9.00;;;8.15;;
56997;SDS011;42890;44.244;22.530;2023-07-30T02:26:05;8.45;;;7.63;;
56997;SDS011;42890;44.244;22.530;2023-07-30T02:28:31;9.60;;;7.57;;
56997;SDS011;42890;44.244;22.530;2023-07-30T02:30:57;8.40;;;7.55;;
56997;SDS011;42890;44.244;22.530;2023-07-30T02:33:23;8.45;;;7.70;;
56997;SDS011;42890;44.244;22.530;2023-07-30T02:35:49;8.15;;;7.45;;
56997;SDS011;42890;44.244;22.530;2023-07-30T02:38:15;13.23;;;7.22;;
56997;SDS011;42890;44.244;22.530;2023-07-30T02:40:41;8.98;;;7.20;;
56997;SDS011;42890;44.244;22.530;2023-07-30T02:43:08;9.23;;;6.97;;
56997;SDS011;42890;44.244;22.530;2023-07-30T02:45:34;7.65;;;6.38;;
56997;SDS011;42890;44.244;22.530;2023-07-30T02:48:00;9.48;;;7.60;;
56997;SDS011;42890;44.244;22.530;2023-07-30T02:50:26;9.50;;;7.38;;
56997;SDS011;42890;44.244;22.530;2023-07-30T02:52:52;11.02;;;8.05;;
56997;SDS011;42890;44.244;22.530;2023-07-30T02:55:18;8.82;;;7.60;;
56997;SDS011;42890;44.244;22.530;2023-07-30T02:57:44;9.68;;;8.73;;
56997;SDS011;42890;44.244;22.530;2023-07-30T03:00:11;9.30;;;8.57;;
56997;SDS011;42890;44.244;22.530;2023-07-30T03:02:37;9.23;;;8.52;;
56997;SDS011;42890;44.244;22.530;2023-07-30T03:05:03;8.75;;;7.95;;
56997;SDS011;42890;44.244;22.530;2023-07-30T03:07:29;8.77;;;7.97;;
56997;SDS011;42890;44.244;22.530;2023-07-30T03:09:55;13.13;;;9.48;;
56997;SDS011;42890;44.244;22.530;2023-07-30T03:12:21;9.20;;;8.40;;
56997;SDS011;42890;44.244;22.530;2023-07-30T03:14:48;9.07;;;8.20;;
56997;SDS011;42890;44.244;22.530;2023-07-30T03:17:14;8.70;;;7.82;;
56997;SDS011;42890;44.244;22.530;2023-07-30T03:19:40;9.50;;;8.35;;
56997;SDS011;42890;44.244;22.530;2023-07-30T03:22:06;11.38;;;8.82;;
56997;SDS011;42890;44.244;22.530;2023-07-30T03:24:32;10.48;;;8.57;;
56997;SDS011;42890;44.244;22.530;2023-07-30T03:26:59;9.32;;;8.32;;
56997;SDS011;42890;44.244;22.530;2023-07-30T03:29:26;9.52;;;8.52;;
56997;SDS011;42890;44.244;22.530;2023-07-30T03:31:52;9.38;;;8.57;;
56997;SDS011;42890;44.244;22.530;2023-07-30T03:34:18;9.15;;;8.25;;
56997;SDS011;42890;44.244;22.530;2023-07-30T03:36:44;8.82;;;8.13;;
56997;SDS011;42890;44.244;22.530;2023-07-30T03:39:10;8.85;;;8.15;;
56997;SDS011;42890;44.244;22.530;2023-07-30T03:41:37;8.45;;;7.75;;
56997;SDS011;42890;44.244;22.530;2023-07-30T03:44:03;9.75;;;7.93;;
56997;SDS011;42890;44.244;22.530;2023-07-30T03:46:29;9.68;;;8.88;;
56997;SDS011;42890;44.244;22.530;2023-07-30T03:48:55;8.45;;;7.75;;
56997;SDS011;42890;44.244;22.530;2023-07-30T03:51:21;8.57;;;7.78;;
56997;SDS011;42890;44.244;22.530;2023-07-30T03:53:47;9.00;;;8.07;;
56997;SDS011;42890;44.244;22.530;2023-07-30T03:56:13;9.70;;;8.40;;
56997;SDS011;42890;44.244;22.530;2023-07-30T03:58:40;9.60;;;8.70;;
56997;SDS011;42890;44.244;22.530;2023-07-30T04:01:06;9.13;;;8.23;;
56997;SDS011;42890;44.244;22.530;2023-07-30T04:03:34;9.02;;;8.13;;
56997;SDS011;42890;44.244;22.530;2023-07-30T04:06:00;8.90;;;7.88;;
56997;SDS011;42890;44.244;22.530;2023-07-30T04:08:26;12.05;;;8.65;;
56997;SDS011;42890;44.244;22.530;2023-07-30T04:10:52;10.38;;;9.23;;
56997;SDS011;42890;44.244;22.530;2023-07-30T04:13:18;12.38;;;11.27;;
56997;SDS011;42890;44.244;22.530;2023-07-30T04:15:46;11.20;;;10.15;;
56997;SDS011;42890;44.244;22.530;2023-07-30T04:18:13;9.73;;;8.82;;
56997;SDS011;42890;44.244;22.530;2023-07-30T04:20:39;9.38;;;8.35;;
56997;SDS011;42890;44.244;22.530;2023-07-30T04:23:05;10.65;;;9.55;;
56997;SDS011;42890;44.244;22.530;2023-07-30T04:25:31;10.98;;;9.98;;
56997;SDS011;42890;44.244;22.530;2023-07-30T04:27:57;11.07;;;9.95;;
56997;SDS011;42890;44.244;22.530;2023-07-30T04:30:23;14.93;;;10.43;;
56997;SDS011;42890;44.244;22.530;2023-07-30T04:32:50;11.63;;;10.52;;
56997;SDS011;42890;44.244;22.530;2023-07-30T04:35:16;10.80;;;9.40;;
56997;SDS011;42890;44.244;22.530;2023-07-30T04:37:42;11.70;;;10.60;;
56997;SDS011;42890;44.244;22.530;2023-07-30T04:40:08;10.95;;;10.02;;
56997;SDS011;42890;44.244;22.530;2023-07-30T04:42:34;11.23;;;10.20;;
56997;SDS011;42890;44.244;22.530;2023-07-30T04:45:00;10.98;;;9.95;;
56997;SDS011;42890;44.244;22.530;2023-07-30T04:47:27;12.07;;;10.90;;
56997;SDS011;42890;44.244;22.530;2023-07-30T04:49:53;14.30;;;10.73;;
56997;SDS011;42890;44.244;22.530;2023-07-30T04:52:19;11.98;;;10.82;;
56997;SDS011;42890;44.244;22.530;2023-07-30T04:54:45;13.82;;;10.48;;
56997;SDS011;42890;44.244;22.530;2023-07-30T04:57:11;11.00;;;9.90;;
56997;SDS011;42890;44.244;22.530;2023-07-30T04:59:38;12.90;;;9.80;;
56997;SDS011;42890;44.244;22.530;2023-07-30T05:02:04;14.45;;;9.15;;
56997;SDS011;42890;44.244;22.530;2023-07-30T05:04:30;10.35;;;9.30;;
56997;SDS011;42890;44.244;22.530;2023-07-30T05:06:56;11.20;;;8.48;;
56997;SDS011;42890;44.244;22.530;2023-07-30T05:09:22;12.40;;;8.88;;
56997;SDS011;42890;44.244;22.530;2023-07-30T05:11:48;9.70;;;8.50;;
56997;SDS011;42890;44.244;22.530;2023-07-30T05:14:14;20.92;;;9.02;;
56997;SDS011;42890;44.244;22.530;2023-07-30T05:16:40;11.95;;;9.18;;
56997;SDS011;42890;44.244;22.530;2023-07-30T05:19:07;13.43;;;8.60;;
56997;SDS011;42890;44.244;22.530;2023-07-30T05:21:33;13.52;;;9.15;;
56997;SDS011;42890;44.244;22.530;2023-07-30T05:23:59;9.70;;;8.50;;
56997;SDS011;42890;44.244;22.530;2023-07-30T05:26:26;16.35;;;9.00;;
56997;SDS011;42890;44.244;22.530;2023-07-30T05:28:52;10.05;;;8.63;;
56997;SDS011;42890;44.244;22.530;2023-07-30T05:31:18;17.35;;;8.50;;
56997;SDS011;42890;44.244;22.530;2023-07-30T05:33:44;11.63;;;8.60;;
56997;SDS011;42890;44.244;22.530;2023-07-30T05:36:10;8.43;;;7.53;;
56997;SDS011;42890;44.244;22.530;2023-07-30T05:38:36;9.57;;;8.13;;
56997;SDS011;42890;44.244;22.530;2023-07-30T05:41:02;9.52;;;8.30;;
56997;SDS011;42890;44.244;22.530;2023-07-30T05:43:28;11.15;;;8.32;;
56997;SDS011;42890;44.244;22.530;2023-07-30T05:45:54;9.18;;;8.18;;
56997;SDS011;42890;44.244;22.530;2023-07-30T05:48:20;10.10;;;7.55;;
56997;SDS011;42890;44.244;22.530;2023-07-30T05:50:47;11.10;;;7.88;;
56997;SDS011;42890;44.244;22.530;2023-07-30T05:53:13;11.05;;;7.65;;
56997;SDS011;42890;44.244;22.530;2023-07-30T05:55:39;8.73;;;7.43;;
56997;SDS011;42890;44.244;22.530;2023-07-30T05:58:05;8.05;;;7.22;;
56997;SDS011;42890;44.244;22.530;2023-07-30T06:00:31;7.82;;;7.03;;
56997;SDS011;42890;44.244;22.530;2023-07-30T06:02:57;8.50;;;7.13;;
56997;SDS011;42890;44.244;22.530;2023-07-30T06:05:23;8.85;;;7.60;;
56997;SDS011;42890;44.244;22.530;2023-07-30T06:07:50;7.55;;;6.72;;
56997;SDS011;42890;44.244;22.530;2023-07-30T06:10:16;10.95;;;6.28;;
56997;SDS011;42890;44.244;22.530;2023-07-30T06:12:42;8.05;;;7.03;;
56997;SDS011;42890;44.244;22.530;2023-07-30T06:15:08;8.68;;;7.00;;
56997;SDS011;42890;44.244;22.530;2023-07-30T06:17:35;7.63;;;6.93;;
56997;SDS011;42890;44.244;22.530;2023-07-30T06:20:01;12.77;;;7.32;;
56997;SDS011;42890;44.244;22.530;2023-07-30T06:22:28;8.07;;;7.28;;
56997;SDS011;42890;44.244;22.530;2023-07-30T06:24:54;7.82;;;6.72;;
56997;SDS011;42890;44.244;22.530;2023-07-30T06:27:20;20.02;;;7.47;;
56997;SDS011;42890;44.244;22.530;2023-07-30T06:29:46;10.55;;;7.47;;
56997;SDS011;42890;44.244;22.530;2023-07-30T06:32:12;9.73;;;7.65;;
56997;SDS011;42890;44.244;22.530;2023-07-30T06:34:38;10.55;;;7.88;;
56997;SDS011;42890;44.244;22.530;2023-07-30T06:37:04;8.18;;;7.28;;
56997;SDS011;42890;44.244;22.530;2023-07-30T06:39:31;10.00;;;7.57;;
56997;SDS011;42890;44.244;22.530;2023-07-30T06:41:57;7.70;;;6.90;;
56997;SDS011;42890;44.244;22.530;2023-07-30T06:44:23;8.82;;;7.38;;
56997;SDS011;42890;44.244;22.530;2023-07-30T06:46:50;8.35;;;7.53;;
56997;SDS011;42890;44.244;22.530;2023-07-30T06:49:16;7.88;;;7.10;;
56997;SDS011;42890;44.244;22.530;2023-07-30T06:51:42;7.45;;;6.75;;
56997;SDS011;42890;44.244;22.530;2023-07-30T06:54:08;10.48;;;6.72;;
56997;SDS011;42890;44.244;22.530;2023-07-30T06:56:34;11.95;;;6.90;;
56997;SDS011;42890;44.244;22.530;2023-07-30T06:59:01;12.70;;;7.00;;
56997;SDS011;42890;44.244;22.530;2023-07-30T07:01:28;10.50;;;6.07;;
56997;SDS011;42890;44.244;22.530;2023-07-30T07:03:54;7.30;;;6.55;;
56997;SDS011;42890;44.244;22.530;2023-07-30T07:06:20;6.93;;;6.22;;
56997;SDS011;42890;44.244;22.530;2023-07-30T07:08:47;6.63;;;5.68;;
56997;SDS011;42890;44.244;22.530;2023-07-30T07:11:13;6.53;;;5.90;;
56997;SDS011;42890;44.244;22.530;2023-07-30T07:13:39;7.88;;;5.88;;
56997;SDS011;42890;44.244;22.530;2023-07-30T07:16:05;8.20;;;6.00;;
56997;SDS011;42890;44.244;22.530;2023-07-30T07:18:31;6.18;;;5.60;;
56997;SDS011;42890;44.244;22.530;2023-07-30T07:20:58;8.32;;;5.65;;
56997;SDS011;42890;44.244;22.530;2023-07-30T07:23:25;8.05;;;6.68;;
56997;SDS011;42890;44.244;22.530;2023-07-30T07:25:52;7.40;;;6.60;;
56997;SDS011;42890;44.244;22.530;2023-07-30T07:28:18;6.70;;;6.10;;
56997;SDS011;42890;44.244;22.530;2023-07-30T07:30:44;6.65;;;5.88;;
56997;SDS011;42890;44.244;22.530;2023-07-30T07:33:10;9.20;;;6.53;;
56997;SDS011;42890;44.244;22.530;2023-07-30T07:35:40;9.35;;;6.38;;
56997;SDS011;42890;44.244;22.530;2023-07-30T07:38:07;7.63;;;6.32;;
56997;SDS011;42890;44.244;22.530;2023-07-30T07:40:37;18.52;;;6.25;;
56997;SDS011;42890;44.244;22.530;2023-07-30T07:43:07;9.13;;;5.97;;
56997;SDS011;42890;44.244;22.530;2023-07-30T07:45:33;7.82;;;6.40;;
56997;SDS011;42890;44.244;22.530;2023-07-30T07:47:59;8.90;;;5.60;;
56997;SDS011;42890;44.244;22.530;2023-07-30T07:50:26;8.77;;;5.63;;
56997;SDS011;42890;44.244;22.530;2023-07-30T07:52:52;8.32;;;5.70;;
56997;SDS011;42890;44.244;22.530;2023-07-30T07:55:18;9.15;;;5.22;;
56997;SDS011;42890;44.244;22.530;2023-07-30T07:57:44;5.40;;;4.85;;
56997;SDS011;42890;44.244;22.530;2023-07-30T08:00:10;6.45;;;5.05;;
56997;SDS011;42890;44.244;22.530;2023-07-30T08:02:36;5.78;;;5.28;;
56997;SDS011;42890;44.244;22.530;2023-07-30T08:05:03;5.50;;;5.00;;
56997;SDS011;42890;44.244;22.530;2023-07-30T08:07:29;6.13;;;5.15;;
56997;SDS011;42890;44.244;22.530;2023-07-30T08:09:55;8.95;;;5.32;;
56997;SDS011;42890;44.244;22.530;2023-07-30T08:12:21;12.02;;;5.15;;
56997;SDS011;42890;44.244;22.530;2023-07-30T08:14:47;6.32;;;5.10;;
56997;SDS011;42890;44.244;22.530;2023-07-30T08:17:13;5.45;;;4.93;;
56997;SDS011;42890;44.244;22.530;2023-07-30T08:19:39;8.32;;;5.28;;
56997;SDS011;42890;44.244;22.530;2023-07-30T08:22:06;8.52;;;5.22;;
56997;SDS011;42890;44.244;22.530;2023-07-30T08:24:32;5.60;;;4.80;;
56997;SDS011;42890;44.244;22.530;2023-07-30T08:26:58;12.32;;;4.93;;
56997;SDS011;42890;44.244;22.530;2023-07-30T08:29:24;6.10;;;5.38;;
56997;SDS011;42890;44.244;22.530;2023-07-30T08:31:50;8.65;;;5.10;;
56997;SDS011;42890;44.244;22.530;2023-07-30T08:34:16;9.73;;;6.28;;
56997;SDS011;42890;44.244;22.530;2023-07-30T08:36:42;8.77;;;5.80;;
56997;SDS011;42890;44.244;22.530;2023-07-30T08:39:09;6.65;;;5.25;;
56997;SDS011;42890;44.244;22.530;2023-07-30T08:41:35;10.82;;;5.38;;
56997;SDS011;42890;44.244;22.530;2023-07-30T08:44:01;6.30;;;5.03;;
56997;SDS011;42890;44.244;22.530;2023-07-30T08:46:27;7.65;;;5.43;;
56997;SDS011;42890;44.244;22.530;2023-07-30T08:48:53;5.72;;;5.13;;
56997;SDS011;42890;44.244;22.530;2023-07-30T08:51:22;6.05;;;4.75;;
56997;SDS011;42890;44.244;22.530;2023-07-30T08:53:50;7.78;;;4.90;;
56997;SDS011;42890;44.244;22.530;2023-07-30T08:56:17;7.38;;;4.70;;
56997;SDS011;42890;44.244;22.530;2023-07-30T08:58:43;7.22;;;5.15;;
56997;SDS011;42890;44.244;22.530;2023-07-30T09:01:11;6.82;;;4.97;;
56997;SDS011;42890;44.244;22.530;2023-07-30T09:03:37;6.50;;;4.88;;
56997;SDS011;42890;44.244;22.530;2023-07-30T09:06:05;5.15;;;4.65;;
56997;SDS011;42890;44.244;22.530;2023-07-30T09:08:31;7.03;;;4.47;;
56997;SDS011;42890;44.244;22.530;2023-07-30T09:11:10;6.30;;;4.72;;
56997;SDS011;42890;44.244;22.530;2023-07-30T09:13:37;8.98;;;5.13;;
56997;SDS011;42890;44.244;22.530;2023-07-30T09:16:10;10.32;;;5.55;;
56997;SDS011;42890;44.244;22.530;2023-07-30T09:18:40;6.60;;;4.47;;
56997;SDS011;42890;44.244;22.530;2023-07-30T09:21:07;5.85;;;5.00;;
56997;SDS011;42890;44.244;22.530;2023-07-30T09:23:38;5.45;;;4.75;;
56997;SDS011;42890;44.244;22.530;2023-07-30T09:26:05;8.13;;;5.00;;
56997;SDS011;42890;44.244;22.530;2023-07-30T09:28:31;10.73;;;4.47;;
56997;SDS011;42890;44.244;22.530;2023-07-30T09:31:03;9.30;;;4.80;;
56997;SDS011;42890;44.244;22.530;2023-07-30T09:33:30;6.07;;;5.13;;
56997;SDS011;42890;44.244;22.530;2023-07-30T09:36:01;8.50;;;5.13;;
56997;SDS011;42890;44.244;22.530;2023-07-30T09:38:27;6.50;;;5.10;;
56997;SDS011;42890;44.244;22.530;2023-07-30T09:40:59;6.43;;;5.78;;
56997;SDS011;42890;44.244;22.530;2023-07-30T09:43:32;6.53;;;6.00;;
56997;SDS011;42890;44.244;22.530;2023-07-30T09:46:07;9.40;;;6.28;;
56997;SDS011;42890;44.244;22.530;2023-07-30T09:48:33;6.70;;;5.65;;
56997;SDS011;42890;44.244;22.530;2023-07-30T09:51:01;7.28;;;5.97;;
56997;SDS011;42890;44.244;22.530;2023-07-30T09:53:33;9.05;;;6.43;;
56997;SDS011;42890;44.244;22.530;2023-07-30T09:56:03;6.50;;;5.82;;
56997;SDS011;42890;44.244;22.530;2023-07-30T09:58:31;6.32;;;5.78;;
56997;SDS011;42890;44.244;22.530;2023-07-30T10:00:58;6.90;;;5.70;;
56997;SDS011;42890;44.244;22.530;2023-07-30T10:03:24;11.80;;;5.78;;
56997;SDS011;42890;44.244;22.530;2023-07-30T10:05:51;6.88;;;4.97;;
56997;SDS011;42890;44.244;22.530;2023-07-30T10:08:23;11.10;;;6.18;;
56997;SDS011;42890;44.244;22.530;2023-07-30T10:10:50;9.33;;;5.60;;
56997;SDS011;42890;44.244;22.530;2023-07-30T10:13:17;7.72;;;5.72;;
56997;SDS011;42890;44.244;22.530;2023-07-30T10:15:44;6.95;;;6.13;;
56997;SDS011;42890;44.244;22.530;2023-07-30T10:18:12;6.43;;;5.80;;
56997;SDS011;42890;44.244;22.530;2023-07-30T10:20:38;7.88;;;5.95;;
56997;SDS011;42890;44.244;22.530;2023-07-30T10:23:05;5.85;;;5.35;;
56997;SDS011;42890;44.244;22.530;2023-07-30T10:28:10;8.93;;;5.53;;
56997;SDS011;42890;44.244;22.530;2023-07-30T10:30:55;8.30;;;6.10;;
56997;SDS011;42890;44.244;22.530;2023-07-30T10:33:22;8.05;;;5.35;;
56997;SDS011;42890;44.244;22.530;2023-07-30T10:35:48;6.38;;;5.38;;
56997;SDS011;42890;44.244;22.530;2023-07-30T10:38:29;7.13;;;5.45;;
56997;SDS011;42890;44.244;22.530;2023-07-30T10:41:02;7.60;;;5.95;;
56997;SDS011;42890;44.244;22.530;2023-07-30T10:43:49;6.40;;;5.57;;
56997;SDS011;42890;44.244;22.530;2023-07-30T10:46:16;5.63;;;5.07;;
56997;SDS011;42890;44.244;22.530;2023-07-30T10:48:43;6.18;;;5.50;;
56997;SDS011;42890;44.244;22.530;2023-07-30T10:51:13;7.20;;;5.28;;
56997;SDS011;42890;44.244;22.530;2023-07-30T10:53:47;6.67;;;5.50;;
56997;SDS011;42890;44.244;22.530;2023-07-30T10:56:15;5.40;;;4.90;;
56997;SDS011;42890;44.244;22.530;2023-07-30T10:58:41;6.43;;;5.50;;
56997;SDS011;42890;44.244;22.530;2023-07-30T11:01:08;7.70;;;4.72;;
56997;SDS011;42890;44.244;22.530;2023-07-30T11:03:35;5.68;;;5.15;;
56997;SDS011;42890;44.244;22.530;2023-07-30T11:06:03;7.00;;;5.30;;
56997;SDS011;42890;44.244;22.530;2023-07-30T11:08:39;5.70;;;5.10;;
56997;SDS011;42890;44.244;22.530;2023-07-30T11:11:08;9.02;;;5.07;;
56997;SDS011;42890;44.244;22.530;2023-07-30T11:13:37;7.22;;;4.93;;
56997;SDS011;42890;44.244;22.530;2023-07-30T11:16:04;5.32;;;4.75;;
56997;SDS011;42890;44.244;22.530;2023-07-30T11:18:32;7.43;;;5.10;;
56997;SDS011;42890;44.244;22.530;2023-07-30T11:21:05;5.50;;;4.72;;
56997;SDS011;42890;44.244;22.530;2023-07-30T11:23:32;5.68;;;4.97;;
56997;SDS011;42890;44.244;22.530;2023-07-30T11:26:00;7.38;;;5.07;;
56997;SDS011;42890;44.244;22.530;2023-07-30T11:28:27;9.43;;;5.10;;
56997;SDS011;42890;44.244;22.530;2023-07-30T11:30:55;7.75;;;4.55;;
56997;SDS011;42890;44.244;22.530;2023-07-30T11:33:21;5.38;;;4.57;;
56997;SDS011;42890;44.244;22.530;2023-07-30T11:35:47;6.00;;;4.80;;
56997;SDS011;42890;44.244;22.530;2023-07-30T11:38:13;6.25;;;5.10;;
56997;SDS011;42890;44.244;22.530;2023-07-30T11:40:39;9.55;;;5.63;;
56997;SDS011;42890;44.244;22.530;2023-07-30T11:43:06;6.53;;;4.80;;
56997;SDS011;42890;44.244;22.530;2023-07-30T11:45:32;5.60;;;5.10;;
56997;SDS011;42890;44.244;22.530;2023-07-30T11:48:05;5.50;;;5.03;;
56997;SDS011;42890;44.244;22.530;2023-07-30T11:50:52;6.68;;;5.20;;
56997;SDS011;42890;44.244;22.530;2023-07-30T11:53:18;7.90;;;4.70;;
56997;SDS011;42890;44.244;22.530;2023-07-30T11:55:44;5.57;;;4.63;;
56997;SDS011;42890;44.244;22.530;2023-07-30T11:58:11;7.28;;;5.07;;
56997;SDS011;42890;44.244;22.530;2023-07-30T12:00:41;5.68;;;5.00;;
56997;SDS011;42890;44.244;22.530;2023-07-30T12:03:10;7.03;;;5.30;;
56997;SDS011;42890;44.244;22.530;2023-07-30T12:05:39;8.48;;;5.28;;
56997;SDS011;42890;44.244;22.530;2023-07-30T12:08:06;6.00;;;5.32;;
56997;SDS011;42890;44.244;22.530;2023-07-30T12:10:48;7.22;;;5.13;;
56997;SDS011;42890;44.244;22.530;2023-07-30T12:13:15;7.10;;;4.75;;
56997;SDS011;42890;44.244;22.530;2023-07-30T12:15:42;7.65;;;5.00;;
56997;SDS011;42890;44.244;22.530;2023-07-30T12:18:09;6.95;;;4.72;;
56997;SDS011;42890;44.244;22.530;2023-07-30T12:20:35;5.03;;;4.53;;
56997;SDS011;42890;44.244;22.530;2023-07-30T12:23:01;6.80;;;4.90;;
56997;SDS011;42890;44.244;22.530;2023-07-30T12:25:28;6.25;;;4.60;;
56997;SDS011;42890;44.244;22.530;2023-07-30T12:27:54;5.28;;;4.60;;
56997;SDS011;42890;44.244;22.530;2023-07-30T12:30:20;6.63;;;4.53;;
56997;SDS011;42890;44.244;22.530;2023-07-30T12:32:47;5.47;;;4.97;;
56997;SDS011;42890;44.244;22.530;2023-07-30T12:35:13;5.72;;;4.88;;
56997;SDS011;42890;44.244;22.530;2023-07-30T12:37:39;6.68;;;4.70;;
56997;SDS011;42890;44.244;22.530;2023-07-30T12:40:05;5.22;;;4.72;;
56997;SDS011;42890;44.244;22.530;2023-07-30T12:42:32;4.90;;;4.40;;
56997;SDS011;42890;44.244;22.530;2023-07-30T12:44:58;5.78;;;4.40;;
56997;SDS011;42890;44.244;22.530;2023-07-30T12:47:24;5.63;;;4.65;;
56997;SDS011;42890;44.244;22.530;2023-07-30T12:49:50;5.70;;;5.07;;
56997;SDS011;42890;44.244;22.530;2023-07-30T12:52:17;5.05;;;4.35;;
56997;SDS011;42890;44.244;22.530;2023-07-30T12:54:43;5.63;;;4.93;;
56997;SDS011;42890;44.244;22.530;2023-07-30T12:57:10;5.00;;;4.60;;
56997;SDS011;42890;44.244;22.530;2023-07-30T12:59:36;5.15;;;4.55;;
56997;SDS011;42890;44.244;22.530;2023-07-30T13:02:02;5.28;;;4.28;;
56997;SDS011;42890;44.244;22.530;2023-07-30T13:04:28;7.05;;;4.82;;
56997;SDS011;42890;44.244;22.530;2023-07-30T13:06:54;7.85;;;4.93;;
56997;SDS011;42890;44.244;22.530;2023-07-30T13:09:20;8.68;;;4.50;;
56997;SDS011;42890;44.244;22.530;2023-07-30T13:11:47;6.20;;;4.65;;
56997;SDS011;42890;44.244;22.530;2023-07-30T13:14:13;4.72;;;4.07;;
56997;SDS011;42890;44.244;22.530;2023-07-30T13:16:39;4.75;;;4.28;;
56997;SDS011;42890;44.244;22.530;2023-07-30T13:19:05;4.55;;;4.15;;
56997;SDS011;42890;44.244;22.530;2023-07-30T13:21:31;7.70;;;4.10;;
56997;SDS011;42890;44.244;22.530;2023-07-30T13:23:57;5.35;;;4.40;;
56997;SDS011;42890;44.244;22.530;2023-07-30T13:26:23;8.13;;;4.30;;
56997;SDS011;42890;44.244;22.530;2023-07-30T13:28:50;6.70;;;4.43;;
56997;SDS011;42890;44.244;22.530;2023-07-30T13:31:16;4.95;;;4.45;;
56997;SDS011;42890;44.244;22.530;2023-07-30T13:33:43;10.27;;;4.72;;
56997;SDS011;42890;44.244;22.530;2023-07-30T13:36:12;4.97;;;4.10;;
56997;SDS011;42890;44.244;22.530;2023-07-30T13:38:39;5.70;;;4.60;;
56997;SDS011;42890;44.244;22.530;2023-07-30T13:41:06;11.10;;;4.32;;
56997;SDS011;42890;44.244;22.530;2023-07-30T13:43:32;9.57;;;4.68;;
56997;SDS011;42890;44.244;22.530;2023-07-30T13:45:58;6.03;;;4.28;;
56997;SDS011;42890;44.244;22.530;2023-07-30T13:48:25;6.53;;;4.50;;
56997;SDS011;42890;44.244;22.530;2023-07-30T13:50:51;6.65;;;4.30;;
56997;SDS011;42890;44.244;22.530;2023-07-30T13:53:17;4.72;;;3.88;;
56997;SDS011;42890;44.244;22.530;2023-07-30T13:55:44;6.55;;;4.13;;
56997;SDS011;42890;44.244;22.530;2023-07-30T13:58:10;4.72;;;4.22;;
56997;SDS011;42890;44.244;22.530;2023-07-30T14:00:36;4.88;;;4.35;;
56997;SDS011;42890;44.244;22.530;2023-07-30T14:03:03;7.63;;;4.15;;
56997;SDS011;42890;44.244;22.530;2023-07-30T14:05:29;7.07;;;4.15;;
56997;SDS011;42890;44.244;22.530;2023-07-30T14:07:55;4.30;;;3.95;;
56997;SDS011;42890;44.244;22.530;2023-07-30T14:10:22;6.38;;;4.38;;
56997;SDS011;42890;44.244;22.530;2023-07-30T14:12:48;10.85;;;4.93;;
56997;SDS011;42890;44.244;22.530;2023-07-30T14:15:14;5.22;;;4.18;;
56997;SDS011;42890;44.244;22.530;2023-07-30T14:17:41;7.88;;;4.18;;
56997;SDS011;42890;44.244;22.530;2023-07-30T14:20:07;6.93;;;3.88;;
56997;SDS011;42890;44.244;22.530;2023-07-30T14:22:34;5.82;;;4.15;;
56997;SDS011;42890;44.244;22.530;2023-07-30T14:25:01;4.80;;;4.22;;
56997;SDS011;42890;44.244;22.530;2023-07-30T14:27:27;6.57;;;4.38;;
56997;SDS011;42890;44.244;22.530;2023-07-30T14:29:53;9.13;;;4.10;;
56997;SDS011;42890;44.244;22.530;2023-07-30T14:32:19;4.63;;;3.58;;